Time;durP1;ratioP1;P1;durP2;ratioP2;P2;SDS_P1;SDS_P2;PMS_P1;PMS_P2;Temp;Humidity;BMP_temperature;BMP_pressure;BME280_temperature;BME280_humidity;BME280_pressure;Samples;Min_cycle;Max_cycle;Signal;HPM_P1;HPM_P2
2022/01/10 00:02:49;;;;;;;7.13;3.63;;;;;;;5.52;74.42;99577.53;10512397;28;20056;-76
2022/01/10 00:07:51;;;;;;;8.70;3.35;;;;;;;5.54;74.39;99583.56;10513750;28;20048;-73
2022/01/10 00:12:52;;;;;;;4.40;3.13;;;;;;;5.51;73.73;99588.19;10490074;28;20554;-71
2022/01/10 00:17:53;;;;;;;5.70;2.97;;;;;;;5.43;74.48;99594.84;10492482;28;20665;-71
2022/01/10 00:22:55;;;;;;;5.93;3.22;;;;;;;5.41;74.81;99606.50;10480475;28;20043;-72
2022/01/10 00:27:56;;;;;;;8.80;3.20;;;;;;;5.38;74.42;99609.34;10481913;28;20135;-71
2022/01/10 00:32:58;;;;;;;6.45;3.58;;;;;;;5.38;74.82;99627.81;10478086;28;20597;-72
2022/01/10 00:37:59;;;;;;;7.20;3.90;;;;;;;5.40;74.35;99625.91;10470722;28;20109;-71
2022/01/10 00:43:00;;;;;;;6.03;3.58;;;;;;;5.45;74.11;99640.47;10485207;28;20054;-71
2022/01/10 00:48:02;;;;;;;7.97;3.90;;;;;;;5.50;74.23;99645.44;10486566;28;20508;-71
2022/01/10 00:53:03;;;;;;;7.65;3.50;;;;;;;5.51;74.29;99644.50;10486996;28;20583;-72
2022/01/10 00:58:04;;;;;;;7.90;3.60;;;;;;;5.54;74.10;99656.63;10480908;28;20265;-71
2022/01/10 01:03:06;;;;;;;9.13;4.32;;;;;;;5.62;73.98;99660.44;10462345;28;20166;-72
2022/01/10 01:08:09;;;;;;;7.00;3.33;;;;;;;5.59;74.40;99671.22;10475908;28;20044;-71
2022/01/10 01:13:33;;;;;;;8.60;3.88;;;;;;;5.72;74.83;99680.91;10468003;28;20115;-73
2022/01/10 01:28:59;;;;;;;7.43;4.25;;;;;;;5.34;74.02;99689.69;10468397;22;20171;-61
2022/01/10 01:34:01;;;;;;;6.43;4.47;;;;;;;5.43;74.39;99716.28;10441754;28;20044;-60
2022/01/10 01:39:15;;;;;;;6.35;3.78;;;;;;;5.25;74.16;99702.53;10445462;28;20056;-61
2022/01/10 01:44:17;;;;;;;7.32;4.40;;;;;;;5.31;74.71;99722.38;10450201;28;20044;-61
2022/01/10 01:49:19;;;;;;;5.47;4.10;;;;;;;5.32;75.01;99714.38;10455966;28;20418;-61
2022/01/10 01:54:20;;;;;;;7.07;4.40;;;;;;;5.48;74.29;99739.75;10440477;28;20053;-60
2022/01/10 01:59:22;;;;;;;6.95;4.10;;;;;;;5.36;74.91;99722.94;10435691;28;20150;-62
2022/01/10 02:04:23;;;;;;;9.75;4.22;;;;;;;5.55;73.88;99748.91;10446987;28;20080;-61
2022/01/10 02:09:25;;;;;;;7.22;4.78;;;;;;;5.58;74.08;99750.53;10449036;28;20055;-60
2022/01/10 02:14:26;;;;;;;6.30;4.15;;;;;;;5.42;73.88;99762.13;10440963;28;20052;-59
2022/01/10 02:19:28;;;;;;;6.30;4.25;;;;;;;5.36;75.11;99782.78;10449580;28;20167;-61
2022/01/10 02:24:30;;;;;;;6.07;4.57;;;;;;;5.39;74.50;99787.84;10446083;28;20136;-60
2022/01/10 02:29:36;;;;;;;6.30;3.83;;;;;;;5.38;74.46;99786.19;10434298;28;20052;-61
2022/01/10 02:34:38;;;;;;;6.97;4.80;;;;;;;5.31;74.86;99777.81;10447386;28;20074;-62
2022/01/10 02:39:39;;;;;;;7.63;5.25;;;;;;;5.40;74.82;99802.75;10437111;28;20052;-61
2022/01/10 02:44:41;;;;;;;8.02;4.93;;;;;;;5.40;75.13;99811.50;10445088;28;20160;-62
2022/01/10 02:49:43;;;;;;;8.52;4.65;;;;;;;5.34;75.12;99809.28;10440158;28;20049;-63
2022/01/10 02:54:44;;;;;;;7.57;5.00;;;;;;;5.47;74.63;99836.56;10438179;28;20056;-60
2022/01/10 02:59:46;;;;;;;7.95;5.00;;;;;;;5.52;75.23;99841.53;10453849;28;20726;-59
2022/01/10 03:04:48;;;;;;;9.00;5.25;;;;;;;5.46;74.81;99837.53;10435886;28;20060;-61
2022/01/10 03:09:51;;;;;;;8.68;5.18;;;;;;;5.46;74.65;99855.16;10441584;28;20057;-59
2022/01/10 03:14:52;;;;;;;7.07;4.82;;;;;;;5.47;74.64;99856.84;10442104;28;20056;-60
2022/01/10 03:19:54;;;;;;;10.90;5.22;;;;;;;5.56;74.62;99871.25;10450973;28;20052;-60
2022/01/10 03:24:55;;;;;;;5.85;4.85;;;;;;;5.52;74.66;99865.28;10440814;28;20048;-62
2022/01/10 03:29:57;;;;;;;7.57;4.85;;;;;;;5.57;74.87;99880.84;10444671;28;20134;-61
2022/01/10 03:34:58;;;;;;;8.93;5.85;;;;;;;5.60;75.17;99907.03;10450773;28;20609;-62
2022/01/10 03:40:00;;;;;;;7.60;4.90;;;;;;;5.59;74.92;99900.91;10444416;28;20044;-61
2022/01/10 03:45:04;;;;;;;7.68;5.18;;;;;;;5.33;75.04;99878.88;10437502;28;20045;-61
2022/01/10 03:50:07;;;;;;;11.40;5.50;;;;;;;5.43;75.18;99900.22;10439018;28;20561;-62
2022/01/10 03:55:09;;;;;;;8.80;5.07;;;;;;;5.40;75.06;99913.63;10440751;28;20040;-63
2022/01/10 04:00:12;;;;;;;11.13;5.90;;;;;;;5.45;75.68;99916.78;10436351;28;20135;-62
2022/01/10 04:05:13;;;;;;;8.02;5.40;;;;;;;5.25;75.20;99918.09;10439528;28;20151;-60
2022/01/10 04:10:15;;;;;;;11.95;5.85;;;;;;;5.13;75.89;99932.91;10442642;28;20403;-61
2022/01/10 04:15:16;;;;;;;9.15;5.07;;;;;;;5.09;76.62;99926.16;10444138;28;20052;-61
2022/01/10 04:20:18;;;;;;;8.32;5.45;;;;;;;5.11;77.94;99938.28;10457793;28;20059;-61
2022/01/10 04:25:21;;;;;;;7.53;5.15;;;;;;;5.16;76.69;99955.63;10438548;28;20056;-60
2022/01/10 04:30:23;;;;;;;12.10;5.47;;;;;;;5.18;76.99;99959.88;10438655;28;20199;-60
2022/01/10 04:35:25;;;;;;;9.25;5.78;;;;;;;5.06;76.54;99960.59;10445271;28;20135;-59
2022/01/10 04:40:27;;;;;;;8.85;5.00;;;;;;;4.97;77.62;99959.41;10443062;28;20049;-59
2022/01/10 04:45:28;;;;;;;9.82;5.07;;;;;;;5.00;76.83;99963.63;10439410;28;20049;-60
2022/01/10 04:55:31;;;;;;;8.52;5.32;;;;;;;5.05;76.68;99999.34;10440176;28;20418;-60
2022/01/10 05:00:33;;;;;;;9.98;5.78;;;;;;;5.12;78.42;100010.38;10440251;28;20254;-61
2022/01/10 05:05:34;;;;;;;10.40;5.68;;;;;;;5.06;78.82;100003.69;10443835;28;20092;-60
2022/01/10 05:10:35;;;;;;;7.53;4.80;;;;;;;4.70;78.16;100012.03;10450647;28;20061;-60
2022/01/10 05:15:37;;;;;;;9.38;5.15;;;;;;;4.25;80.67;100027.84;10451784;28;20259;-60
2022/01/10 05:20:38;;;;;;;9.68;6.18;;;;;;;4.23;80.51;100035.84;10458785;28;20147;-61
2022/01/10 05:25:40;;;;;;;8.68;5.13;;;;;;;4.41;82.25;100038.31;10451990;28;20049;-61
2022/01/10 05:30:42;;;;;;;7.75;5.28;;;;;;;4.64;80.39;100041.41;10448307;28;20053;-61
2022/01/10 05:35:44;;;;;;;11.10;5.80;;;;;;;4.51;80.50;100065.84;10450725;28;20083;-61
2022/01/10 05:40:45;;;;;;;8.73;5.20;;;;;;;4.62;79.38;100072.28;10448251;28;20124;-61
2022/01/10 05:45:47;;;;;;;9.57;6.03;;;;;;;4.88;78.74;100097.09;10447862;28;20120;-61
2022/01/10 05:50:49;;;;;;;6.95;5.40;;;;;;;4.83;80.53;100107.94;10449639;28;20781;-61
2022/01/10 05:55:50;;;;;;;13.88;7.05;;;;;;;4.92;79.79;100109.19;10442569;28;20072;-65
2022/01/10 06:00:52;;;;;;;13.65;8.55;;;;;;;4.80;79.58;100118.66;10431193;28;20229;-61
2022/01/10 06:05:53;;;;;;;9.30;7.10;;;;;;;4.73;79.84;100117.34;10439321;28;20067;-61
2022/01/10 06:10:54;;;;;;;12.40;8.98;;;;;;;4.70;79.49;100133.31;10440339;28;20049;-61
2022/01/10 06:15:56;;;;;;;11.65;7.53;;;;;;;4.72;79.07;100136.75;10436139;28;20091;-60
2022/01/10 06:20:57;;;;;;;8.85;6.97;;;;;;;4.50;79.37;100142.38;10435927;28;20050;-61
2022/01/10 06:25:59;;;;;;;8.38;6.60;;;;;;;4.65;78.40;100169.66;10442832;28;20048;-59
2022/01/10 06:31:00;;;;;;;16.45;8.95;;;;;;;4.63;77.90;100179.47;10447773;28;20056;-63
2022/01/10 06:36:02;;;;;;;12.65;9.23;;;;;;;4.64;78.32;100197.81;10445325;28;20052;-61
2022/01/10 06:41:03;;;;;;;12.10;9.52;;;;;;;4.71;77.88;100206.22;10445394;28;20045;-60
2022/01/10 06:46:05;;;;;;;14.23;9.65;;;;;;;4.77;77.44;100212.03;10441986;28;20125;-62
2022/01/10 06:51:08;;;;;;;18.73;13.32;;;;;;;4.69;77.87;100226.56;10440935;28;20041;-59
2022/01/10 06:56:09;;;;;;;14.73;10.90;;;;;;;4.67;78.18;100231.94;10441707;28;20063;-59
2022/01/10 07:01:11;;;;;;;11.98;7.82;;;;;;;4.70;78.50;100249.34;10445622;28;20047;-60
2022/01/10 07:06:13;;;;;;;10.10;7.32;;;;;;;4.63;78.63;100254.13;10442376;28;20052;-61
2022/01/10 07:11:14;;;;;;;10.45;7.90;;;;;;;4.58;78.14;100267.56;10446845;28;20052;-59
2022/01/10 07:16:16;;;;;;;12.43;8.90;;;;;;;4.46;77.05;100265.63;10447272;28;20423;-59
2022/01/10 07:21:17;;;;;;;13.20;9.35;;;;;;;4.54;77.26;100295.03;10446445;28;20440;-59
2022/01/10 07:26:19;;;;;;;14.73;9.45;;;;;;;4.46;76.93;100306.91;10443686;28;20224;-60
2022/01/10 07:31:26;;;;;;;17.95;9.50;;;;;;;4.41;77.07;100317.72;10440035;28;20127;-60
2022/01/10 07:36:28;;;;;;;13.40;10.65;;;;;;;4.33;77.36;100325.19;10443243;28;20136;-59
2022/01/10 07:41:29;;;;;;;15.77;12.13;;;;;;;4.28;77.37;100343.00;10444475;28;20053;-59
2022/01/10 07:46:30;;;;;;;14.32;10.32;;;;;;;4.27;77.13;100336.06;10442898;28;20120;-59
2022/01/10 07:51:32;;;;;;;13.20;10.40;;;;;;;4.28;77.36;100343.00;10441823;28;20087;-59
2022/01/10 07:56:33;;;;;;;11.95;8.90;;;;;;;4.16;77.00;100336.59;10447476;28;20048;-59
2022/01/10 08:01:35;;;;;;;12.88;9.55;;;;;;;4.30;77.45;100367.53;10438802;28;20524;-60
2022/01/10 08:06:36;;;;;;;13.10;10.20;;;;;;;4.10;77.32;100350.97;10442084;28;20053;-59
2022/01/10 08:11:38;;;;;;;11.88;9.50;;;;;;;4.10;77.52;100381.72;10443000;28;20649;-59
2022/01/10 08:16:39;;;;;;;11.82;9.23;;;;;;;3.80;78.34;100356.88;10445640;28;20460;-58
2022/01/10 08:21:41;;;;;;;12.55;8.18;;;;;;;4.10;78.17;100398.41;10443094;28;20455;-57
2022/01/10 08:26:42;;;;;;;13.18;9.23;;;;;;;4.11;78.32;100421.16;10442638;28;20072;-59
2022/01/10 08:31:45;;;;;;;14.93;9.18;;;;;;;4.11;78.79;100425.59;10441465;28;20434;-59
2022/01/10 08:36:46;;;;;;;16.17;8.60;;;;;;;4.18;78.15;100424.34;10450751;28;20074;-59
2022/01/10 08:41:48;;;;;;;10.55;8.52;;;;;;;4.42;77.36;100445.94;10448612;28;20056;-59
2022/01/10 08:46:49;;;;;;;11.10;9.00;;;;;;;4.46;76.70;100441.34;10461388;28;20139;-59
2022/01/10 08:51:54;;;;;;;12.98;10.68;;;;;;;4.43;76.73;100447.66;10452517;28;20075;-66
2022/01/10 08:56:56;;;;;;;13.43;9.57;;;;;;;4.59;75.98;100464.38;10449494;28;20051;-59
2022/01/10 09:01:58;;;;;;;12.13;9.18;;;;;;;4.69;75.65;100475.28;10448248;28;20052;-60
2022/01/10 09:07:02;;;;;;;11.82;9.57;;;;;;;4.67;75.19;100469.25;10450962;28;20507;-60
2022/01/10 09:12:04;;;;;;;14.38;8.88;;;;;;;4.89;74.95;100497.97;10449791;28;20133;-57
2022/01/10 09:17:06;;;;;;;12.95;9.20;;;;;;;5.02;74.22;100489.41;10450769;28;20044;-58
2022/01/10 09:22:07;;;;;;;11.73;9.15;;;;;;;5.07;74.03;100495.28;10451171;28;20052;-60
2022/01/10 09:27:09;;;;;;;15.50;11.27;;;;;;;5.29;73.15;100527.50;10450821;28;20045;-60
2022/01/10 09:32:10;;;;;;;16.92;14.93;;;;;;;5.47;72.92;100538.00;10454572;28;20067;-60
2022/01/10 09:37:12;;;;;;;15.60;11.80;;;;;;;5.52;72.46;100545.69;10454537;28;20056;-61
2022/01/10 09:42:13;;;;;;;15.43;11.98;;;;;;;5.52;72.76;100549.16;10451915;28;20063;-58
2022/01/10 09:47:15;;;;;;;14.93;10.95;;;;;;;5.48;72.19;100543.22;10451483;28;20411;-58
2022/01/10 09:52:16;;;;;;;16.27;11.05;;;;;;;5.64;72.51;100560.84;10450713;28;20060;-59
2022/01/10 09:57:18;;;;;;;15.68;11.65;;;;;;;5.74;72.12;100563.84;10452342;28;20058;-60
2022/01/10 10:02:20;;;;;;;15.38;11.73;;;;;;;5.86;71.98;100573.72;10449665;28;20247;-60
2022/01/10 10:07:26;;;;;;;14.68;10.93;;;;;;;5.95;71.74;100572.38;10448301;28;20051;-60
2022/01/10 10:12:28;;;;;;;12.38;10.45;;;;;;;5.90;71.54;100567.34;10445239;28;20056;-59
2022/01/10 10:17:30;;;;;;;18.05;13.35;;;;;;;5.97;72.00;100597.78;10449058;28;20060;-59
2022/01/10 10:22:32;;;;;;;18.85;11.13;;;;;;;5.99;72.12;100601.19;10448885;28;20489;-59
2022/01/10 10:27:41;;;;;;;14.82;11.65;;;;;;;6.05;71.68;100601.78;10451854;28;20058;-58
2022/01/10 10:32:47;;;;;;;16.13;10.70;;;;;;;5.96;71.47;100588.13;10450865;28;20684;-58
2022/01/10 10:37:49;;;;;;;15.85;11.02;;;;;;;6.07;72.12;100613.16;10447733;28;20091;-58
2022/01/10 10:42:50;;;;;;;14.70;9.98;;;;;;;6.14;71.59;100617.13;10445545;28;20097;-58
2022/01/10 10:47:52;;;;;;;14.18;9.02;;;;;;;6.24;71.33;100618.31;10445095;28;20053;-59
2022/01/10 10:52:54;;;;;;;13.35;9.50;;;;;;;6.50;70.24;100632.72;10446403;28;20056;-59
2022/01/10 10:57:56;;;;;;;12.95;9.57;;;;;;;6.88;69.37;100642.00;10441899;28;20064;-58
2022/01/10 11:02:57;;;;;;;13.85;10.02;;;;;;;7.42;67.00;100639.63;10446844;28;20504;-59
2022/01/10 11:07:59;;;;;;;15.48;9.02;;;;;;;8.09;64.04;100640.78;10445765;28;20053;-59
2022/01/10 11:13:01;;;;;;;12.98;8.73;;;;;;;8.43;61.16;100638.63;10442403;28;20413;-58
2022/01/10 11:18:04;;;;;;;13.75;9.32;;;;;;;8.71;59.82;100648.31;10441682;28;20049;-59
2022/01/10 11:23:08;;;;;;;14.93;9.48;;;;;;;12.48;50.69;100657.88;10444483;28;20425;-58
2022/01/10 11:28:23;;;;;;;12.00;6.78;;;;;;;17.81;37.86;100646.88;10445542;28;20053;-59
2022/01/10 11:33:26;;;;;;;9.13;6.65;;;;;;;20.00;32.06;100662.69;10440721;28;20143;-59
2022/01/10 11:38:38;;;;;;;11.07;7.03;;;;;;;21.74;29.59;100650.41;10445223;28;20735;-59
2022/01/10 11:44:04;;;;;;;8.95;6.25;;;;;;;22.18;27.70;100667.63;10441206;28;20060;-59
2022/01/10 11:49:08;;;;;;;15.95;10.55;;;;;;;23.82;26.30;100680.41;10446904;28;20379;-59
2022/01/10 11:54:22;;;;;;;9.10;6.03;;;;;;;24.55;24.64;100671.75;10446935;28;20151;-60
2022/01/10 11:59:27;;;;;;;7.28;5.50;;;;;;;25.45;23.44;100689.69;10442674;28;20049;-59
2022/01/10 12:04:37;;;;;;;10.40;6.32;;;;;;;25.19;23.23;100691.31;10444953;28;20596;-60
2022/01/10 12:09:40;;;;;;;8.65;4.82;;;;;;;25.81;21.96;100693.81;10429101;28;20045;-59
2022/01/10 12:14:43;;;;;;;7.18;4.18;;;;;;;26.47;20.82;100695.47;10441429;28;20044;-60
2022/01/10 12:19:44;;;;;;;5.90;3.58;;;;;;;27.02;20.19;100699.56;10444801;28;20139;-59
2022/01/10 12:24:46;;;;;;;7.32;4.65;;;;;;;26.66;20.57;100707.31;10441023;28;20561;-60
2022/01/10 12:29:47;;;;;;;7.95;4.63;;;;;;;27.15;19.83;100711.22;10440577;28;20333;-60
2022/01/10 12:34:48;;;;;;;;;;;;;;;27.05;20.10;100710.06;10441028;28;20049;-59
2022/01/10 12:39:50;;;;;;;8.30;4.40;;;;;;;27.28;19.94;100714.94;10442601;28;19927;-60
2022/01/10 12:44:52;;;;;;;7.18;3.58;;;;;;;27.62;20.41;100710.00;10442123;28;20325;-60
2022/01/10 12:49:53;;;;;;;6.35;3.70;;;;;;;27.46;19.13;100717.72;10441687;28;20067;-61
2022/01/10 12:54:55;;;;;;;6.40;3.70;;;;;;;27.77;18.79;100712.38;10441609;28;20052;-59
2022/01/10 12:59:58;;;;;;;8.77;3.65;;;;;;;28.12;19.52;100741.91;10437933;28;20075;-60
2022/01/10 13:05:07;;;;;;;5.50;3.28;;;;;;;27.19;19.11;100743.56;10443434;28;20082;-59
2022/01/10 13:10:18;;;;;;;4.82;3.45;;;;;;;26.25;19.76;100752.25;10441807;28;20048;-59
2022/01/10 13:15:20;;;;;;;6.75;3.67;;;;;;;26.90;19.35;100743.13;10441167;28;20055;-59
2022/01/10 13:20:24;;;;;;;5.18;3.20;;;;;;;24.32;21.68;100767.28;10439822;28;20079;-60
2022/01/10 13:25:25;;;;;;;7.28;5.43;;;;;;;21.33;26.37;100756.38;10443740;28;20514;-59
2022/01/10 13:30:27;;;;;;;9.73;3.67;;;;;;;21.25;25.71;100780.81;10451799;28;20048;-58
2022/01/10 13:35:29;;;;;;;8.18;3.38;;;;;;;21.07;26.42;100787.38;10446306;28;20048;-61
2022/01/10 13:40:39;;;;;;;6.37;4.13;;;;;;;20.94;26.73;100800.66;10448000;28;20147;-59
2022/01/10 13:45:54;;;;;;;8.02;4.55;;;;;;;20.18;27.67;100806.53;10450535;28;20475;-59
2022/01/10 13:50:58;;;;;;;6.57;4.25;;;;;;;18.87;30.32;100810.00;10447508;28;20125;-59
2022/01/10 13:56:08;;;;;;;9.30;4.80;;;;;;;16.33;34.32;100823.00;10450479;28;20063;-59
2022/01/10 14:01:14;;;;;;;9.20;6.47;;;;;;;14.88;37.35;100825.59;10450817;28;20082;-61
2022/01/10 14:06:21;;;;;;;7.70;5.32;;;;;;;13.85;39.63;100840.75;10448527;28;20048;-60
2022/01/10 14:11:24;;;;;;;10.68;5.63;;;;;;;13.18;41.66;100842.72;10445723;28;20143;-60
2022/01/10 14:16:34;;;;;;;7.88;5.45;;;;;;;12.75;42.66;100851.56;10449482;28;20048;-60
2022/01/10 14:21:37;;;;;;;7.55;5.53;;;;;;;12.32;43.95;100866.47;10445275;28;20529;-59
2022/01/10 14:26:40;;;;;;;7.63;5.88;;;;;;;11.91;45.32;100873.19;10446139;28;20105;-58
2022/01/10 14:31:41;;;;;;;13.45;7.57;;;;;;;11.48;46.72;100867.44;10443775;28;20045;-58
2022/01/10 14:36:43;;;;;;;10.30;5.60;;;;;;;11.18;47.77;100880.34;10448918;28;20072;-60
2022/01/10 14:41:44;;;;;;;6.90;4.97;;;;;;;10.96;47.60;100896.09;10445252;28;20053;-60
2022/01/10 14:46:46;;;;;;;11.40;6.47;;;;;;;10.63;48.76;100906.47;10445102;28;20503;-59
2022/01/10 14:51:47;;;;;;;12.98;7.00;;;;;;;10.41;49.72;100916.81;10448173;28;20067;-62
2022/01/10 14:56:49;;;;;;;11.15;7.50;;;;;;;10.25;51.91;100918.78;10445359;28;20052;-59
2022/01/10 15:01:50;;;;;;;9.85;7.03;;;;;;;10.02;52.86;100931.00;10445862;28;20705;-58
2022/01/10 15:06:52;;;;;;;15.35;6.28;;;;;;;9.91;52.58;100940.56;10446539;28;20460;-58
2022/01/10 15:11:53;;;;;;;11.05;7.55;;;;;;;9.72;53.45;100945.38;10443958;28;20124;-58
2022/01/10 15:16:55;;;;;;;9.48;7.53;;;;;;;9.57;54.55;100957.03;10443450;28;20143;-59
2022/01/10 15:21:56;;;;;;;11.23;8.52;;;;;;;9.47;55.23;100948.78;10446275;28;20111;-59
2022/01/10 15:27:03;;;;;;;16.20;9.10;;;;;;;9.33;56.36;100978.91;10445965;28;20052;-59
2022/01/10 15:32:05;;;;;;;13.10;9.57;;;;;;;9.19;57.05;100975.31;10442985;28;20060;-59
2022/01/10 15:37:07;;;;;;;12.27;8.05;;;;;;;9.09;57.49;100986.63;10442130;28;20063;-58
2022/01/10 15:42:14;;;;;;;12.65;8.50;;;;;;;8.91;57.88;101005.41;10443600;28;20044;-58
2022/01/10 15:47:16;;;;;;;12.98;8.75;;;;;;;8.64;58.57;100992.88;10443122;28;20051;-59
2022/01/10 15:52:18;;;;;;;13.82;8.52;;;;;;;8.69;59.17;101015.63;10444880;28;20135;-59
2022/01/10 15:57:20;;;;;;;14.50;8.68;;;;;;;8.57;59.47;101011.91;10443057;28;20051;-59
2022/01/10 16:02:21;;;;;;;14.98;8.13;;;;;;;8.48;60.21;101031.88;10438591;28;20057;-58
2022/01/10 16:07:23;;;;;;;10.38;8.30;;;;;;;8.45;60.74;101040.03;10440559;28;20560;-60
2022/01/10 16:12:25;;;;;;;11.10;8.10;;;;;;;8.38;60.85;101044.81;10438309;28;20058;-60
2022/01/10 16:17:27;;;;;;;17.50;9.05;;;;;;;8.29;60.58;101053.31;10441165;28;20048;-59
2022/01/10 16:22:28;;;;;;;16.88;9.75;;;;;;;8.25;61.32;101065.03;10443739;28;20143;-60
2022/01/10 16:27:29;;;;;;;12.52;7.78;;;;;;;8.19;61.26;101065.41;10443808;28;20068;-58
2022/01/10 16:32:31;;;;;;;14.10;9.57;;;;;;;8.08;61.32;101088.06;10442937;28;20119;-60
2022/01/10 16:37:32;;;;;;;12.50;8.10;;;;;;;8.05;61.40;101093.56;10439608;28;20041;-58
2022/01/10 16:42:34;;;;;;;12.43;8.00;;;;;;;8.00;61.89;101100.94;10439785;28;20041;-58
2022/01/10 16:47:36;;;;;;;11.43;7.95;;;;;;;7.92;62.36;101111.09;10441181;28;20067;-58
2022/01/10 16:52:38;;;;;;;11.43;7.93;;;;;;;7.88;62.17;101120.16;10444023;28;20055;-58
2022/01/10 16:57:39;;;;;;;11.98;8.20;;;;;;;7.74;62.66;101119.09;10446416;28;20146;-60
2022/01/10 17:02:41;;;;;;;13.82;8.85;;;;;;;7.67;63.16;101123.06;10448930;28;20040;-60
2022/01/10 17:07:43;;;;;;;11.70;9.05;;;;;;;7.70;62.65;101144.09;10451626;28;20589;-60
2022/01/10 17:12:52;;;;;;;11.52;8.30;;;;;;;7.65;63.32;101148.75;10445070;28;20097;-60
2022/01/10 17:17:54;;;;;;;15.70;8.50;;;;;;;7.56;63.36;101141.31;10446458;28;20500;-61
2022/01/10 17:22:56;;;;;;;12.10;8.63;;;;;;;7.66;63.32;101162.88;10448562;28;20128;-58
2022/01/10 17:27:58;;;;;;;10.52;8.57;;;;;;;7.61;63.72;101179.00;10451982;28;20059;-59
2022/01/10 17:33:00;;;;;;;15.27;8.27;;;;;;;7.57;63.92;101185.44;10451063;28;20135;-60
2022/01/10 17:38:01;;;;;;;13.40;8.70;;;;;;;7.53;63.46;101189.16;10451815;28;20052;-60
2022/01/10 17:43:03;;;;;;;10.77;8.07;;;;;;;7.27;64.28;101159.63;10448635;28;20140;-60
2022/01/10 17:48:05;;;;;;;10.80;7.57;;;;;;;7.47;63.97;101200.09;10447329;28;20137;-60
2022/01/10 17:53:06;;;;;;;9.38;7.93;;;;;;;7.16;64.30;101164.59;10445359;28;20050;-61
2022/01/10 17:58:08;;;;;;;14.05;8.98;;;;;;;7.08;63.92;101184.38;10445450;28;20044;-61
2022/01/10 18:03:10;;;;;;;13.00;8.80;;;;;;;7.12;64.98;101194.84;10448931;28;20072;-61
2022/01/10 18:08:13;;;;;;;13.00;8.90;;;;;;;6.99;65.62;101207.81;10441890;28;20045;-61
2022/01/10 18:13:15;;;;;;;11.40;8.18;;;;;;;7.04;66.51;101211.97;10441066;28;20055;-60
2022/01/10 18:18:17;;;;;;;14.20;8.90;;;;;;;7.00;65.03;101243.97;10443284;28;22669;-61
2022/01/10 18:23:18;;;;;;;13.25;9.05;;;;;;;6.99;65.48;101243.09;10442610;28;20155;-62
2022/01/10 18:28:20;;;;;;;14.15;9.85;;;;;;;7.04;65.01;101256.09;10446744;28;20072;-62
2022/01/10 18:33:21;;;;;;;14.15;9.98;;;;;;;6.95;65.79;101249.50;10443623;28;20063;-60
2022/01/10 18:38:23;;;;;;;13.68;9.95;;;;;;;7.00;66.15;101266.00;10446758;28;20053;-62
2022/01/10 18:43:25;;;;;;;16.02;11.43;;;;;;;7.03;65.72;101265.84;10447111;28;20475;-60
2022/01/10 18:48:27;;;;;;;15.88;11.15;;;;;;;6.95;66.18;101283.91;10443653;28;20051;-60
2022/01/10 18:53:29;;;;;;;13.68;9.23;;;;;;;6.92;66.90;101272.59;10443981;28;20075;-59
2022/01/10 18:58:30;;;;;;;15.48;10.35;;;;;;;6.94;66.76;101303.34;10442218;28;20053;-60
2022/01/10 19:03:32;;;;;;;13.70;10.93;;;;;;;7.08;67.25;101300.88;10444136;28;20048;-59
2022/01/10 19:08:33;;;;;;;15.90;9.95;;;;;;;7.08;66.39;101311.47;10447555;28;20052;-58
2022/01/10 19:13:34;;;;;;;16.23;11.20;;;;;;;7.04;66.12;101307.28;10450879;28;20058;-58
2022/01/10 19:18:37;;;;;;;16.63;10.30;;;;;;;6.99;66.21;101317.22;10443495;28;20484;-59
2022/01/10 19:23:38;;;;;;;35.13;24.98;;;;;;;7.04;66.27;101315.22;10448687;28;20051;-60
2022/01/10 19:28:44;;;;;;;14.50;10.27;;;;;;;7.00;65.85;101328.69;10444710;28;20067;-61
2022/01/10 19:33:47;;;;;;;14.18;9.45;;;;;;;7.02;64.85;101326.81;10446690;28;20489;-60
2022/01/10 19:38:48;;;;;;;18.10;10.25;;;;;;;6.90;65.52;101317.66;10448030;28;20437;-63
2022/01/10 19:43:50;;;;;;;11.45;9.10;;;;;;;6.96;65.64;101343.00;10448554;28;20068;-58
2022/01/10 19:48:51;;;;;;;14.50;9.35;;;;;;;6.95;65.44;101336.84;10443902;28;20450;-59
2022/01/10 19:53:53;;;;;;;13.07;9.77;;;;;;;6.69;65.84;101291.28;10444668;28;20048;-60
2022/01/10 19:58:56;;;;;;;12.10;8.65;;;;;;;6.94;65.44;101352.81;10449005;28;20525;-58
2022/01/10 20:03:57;;;;;;;11.57;8.98;;;;;;;6.95;66.04;101347.44;10444670;28;20068;-60
2022/01/10 20:09:01;;;;;;;13.38;9.27;;;;;;;6.98;65.33;101352.59;10444374;28;20052;-58
2022/01/10 20:14:03;;;;;;;12.75;9.88;;;;;;;6.93;64.99;101364.31;10443694;28;20054;-58
2022/01/10 20:19:04;;;;;;;11.60;9.15;;;;;;;6.78;65.56;101352.66;10443747;28;20079;-58
2022/01/10 20:24:06;;;;;;;10.10;7.90;;;;;;;6.78;65.53;101365.88;10445851;28;20180;-59
2022/01/10 20:29:08;;;;;;;12.73;9.38;;;;;;;6.83;65.62;101375.34;10446221;28;20049;-61
2022/01/10 20:34:10;;;;;;;12.70;8.98;;;;;;;6.84;65.47;101378.84;10449966;28;20044;-58
2022/01/10 20:39:11;;;;;;;11.65;9.43;;;;;;;6.81;66.09;101376.34;10443550;28;20042;-59
2022/01/10 20:44:13;;;;;;;15.07;9.38;;;;;;;6.72;65.97;101362.63;10446961;28;20059;-58
2022/01/10 20:49:18;;;;;;;12.00;9.60;;;;;;;6.77;66.26;101385.34;10451882;28;20052;-60
2022/01/10 20:54:19;;;;;;;12.15;9.20;;;;;;;6.81;66.21;101386.91;10456528;28;20050;-58
2022/01/10 20:59:21;;;;;;;11.82;8.70;;;;;;;6.80;66.31;101388.72;10445884;28;20120;-60
2022/01/10 21:04:23;;;;;;;9.82;8.13;;;;;;;6.78;65.18;101395.00;10442960;28;20049;-59
2022/01/10 21:09:25;;;;;;;9.18;8.15;;;;;;;6.67;65.97;101388.41;10445323;28;20059;-59
2022/01/10 21:14:27;;;;;;;17.38;11.30;;;;;;;6.73;66.51;101401.34;10436744;28;20407;-59
2022/01/10 21:19:28;;;;;;;14.10;9.88;;;;;;;6.66;66.43;101413.16;10442790;28;20056;-58
2022/01/10 21:24:30;;;;;;;12.30;10.25;;;;;;;6.62;66.18;101414.25;10452952;28;20067;-60
2022/01/10 21:29:32;;;;;;;12.88;9.52;;;;;;;6.45;66.44;101390.31;10447369;28;20055;-59
2022/01/10 21:34:34;;;;;;;12.85;9.98;;;;;;;6.52;66.63;101423.50;10441143;28;20048;-61
2022/01/10 21:39:36;;;;;;;11.60;9.57;;;;;;;6.48;66.42;101416.63;10439731;28;20676;-59
2022/01/10 21:44:37;;;;;;;12.98;9.30;;;;;;;6.28;66.67;101405.16;10459669;28;20668;-60
2022/01/10 21:49:39;;;;;;;13.23;9.82;;;;;;;6.37;66.65;101428.53;10455487;28;20128;-60
2022/01/10 21:54:40;;;;;;;11.60;9.95;;;;;;;6.15;67.59;101417.19;10444102;28;20104;-60
2022/01/10 21:59:42;;;;;;;15.98;11.15;;;;;;;6.18;68.06;101440.84;10453831;28;20516;-60
2022/01/10 22:04:44;;;;;;;13.98;10.63;;;;;;;6.05;67.92;101423.78;10453289;28;20153;-62
2022/01/10 22:09:45;;;;;;;15.85;11.70;;;;;;;6.04;68.23;101445.88;10451945;28;20231;-60
2022/01/10 22:14:47;;;;;;;14.40;10.95;;;;;;;5.98;68.68;101439.91;10451893;28;20522;-60
2022/01/10 22:19:48;;;;;;;13.85;10.52;;;;;;;5.88;68.76;101443.84;10460210;28;20052;-61
2022/01/10 22:24:50;;;;;;;17.05;11.55;;;;;;;5.81;69.10;101450.28;10458813;28;20602;-60
2022/01/10 22:29:51;;;;;;;16.58;11.85;;;;;;;5.68;70.31;101452.59;10451889;28;20050;-61
2022/01/10 22:34:52;;;;;;;15.10;12.88;;;;;;;5.46;70.35;101437.63;10453824;28;20058;-61
2022/01/10 22:39:54;;;;;;;12.82;10.90;;;;;;;5.61;70.40;101464.34;10449328;28;20128;-60
2022/01/10 22:44:55;;;;;;;16.88;11.85;;;;;;;5.43;70.62;101463.28;10455897;28;20534;-60
2022/01/10 22:49:56;;;;;;;15.98;12.20;;;;;;;5.55;70.78;101468.06;10453842;28;20131;-60
2022/01/10 22:54:58;;;;;;;14.02;11.43;;;;;;;5.42;71.07;101466.84;10446043;28;20054;-60
2022/01/10 22:59:59;;;;;;;15.85;11.63;;;;;;;5.36;71.75;101477.66;10455642;28;20128;-60
2022/01/10 23:05:00;;;;;;;18.17;12.93;;;;;;;5.48;71.29;101482.47;10446275;28;20051;-59
2022/01/10 23:10:02;;;;;;;15.85;11.57;;;;;;;5.54;71.21;101484.88;10453823;28;20136;-60
2022/01/10 23:15:06;;;;;;;17.48;12.10;;;;;;;5.48;71.19;101485.97;10455188;28;20048;-60
2022/01/10 23:20:09;;;;;;;18.52;14.02;;;;;;;5.53;71.05;101485.78;10450484;28;20044;-61
2022/01/10 23:25:12;;;;;;;14.38;11.40;;;;;;;5.68;72.47;101501.94;10446703;28;20072;-60
2022/01/10 23:30:14;;;;;;;15.70;11.90;;;;;;;5.50;71.13;101496.47;10444231;28;20049;-60